CDT,Max TemperatureF,Mean TemperatureF,Min TemperatureF,Max Dew PointF,MeanDew PointF,Min DewpointF,Max Humidity, Mean Humidity, Min Humidity, Max Sea Level PressureIn, Mean Sea Level PressureIn, Min Sea Level PressureIn, Max VisibilityMiles, Mean VisibilityMiles, Min VisibilityMiles, Max Wind SpeedMPH, Mean Wind SpeedMPH, Max Gust SpeedMPH,PrecipitationIn, CloudCover, Events, WindDirDegrees
2012-9-1,89,80,71,70,66,63,83,64,49,30.00,29.96,29.92,10,10,10,20,10,23,0.00,3,,277
2012-9-2,96,81,66,70,66,63,88,65,37,30.00,29.96,29.91,10,9,3,9,2,,0.00,0,,354
2012-9-3,100,86,71,70,66,61,83,56,27,29.97,29.94,29.88,10,10,9,12,5,18,0.00,0,,209
2012-9-4,100,89,78,68,63,61,57,39,29,29.90,29.87,29.84,10,10,10,9,5,,0.00,0,,173
2012-9-5,96,84,73,70,65,63,69,55,34,29.92,29.89,29.85,10,10,10,12,5,,0.00,0,,98
2012-9-6,96,84,71,72,66,61,78,62,44,29.97,29.93,29.87,10,10,9,18,4,28,0.00,1,Thunderstorm,99
2012-9-7,93,78,64,72,65,57,88,69,46,30.05,29.91,29.73,10,10,2,29,8,40,0.17,3,Thunderstorm,128
2012-9-8,73,64,55,57,51,46,88,62,41,30.17,30.11,30.05,10,10,6,20,11,26,0.00,1,,9
2012-9-9,80,66,51,54,50,46,82,59,32,30.18,30.13,30.09,10,10,5,15,4,17,0.00,0,,344
2012-9-10,82,68,53,57,51,46,77,57,35,30.20,30.14,30.07,10,10,7,9,4,,0.00,0,,117
2012-9-11,86,73,60,59,55,50,77,54,35,30.16,30.10,30.05,10,10,10,15,7,21,0.00,0,,160
2012-9-12,84,74,64,61,55,54,68,56,37,30.16,30.10,30.06,10,10,7,15,9,20,0.00,0,,149
2012-9-13,82,72,62,66,60,55,83,68,54,30.26,30.17,30.11,10,10,10,25,7,32,0.00,2,Thunderstorm,73
2012-9-14,64,62,60,59,56,54,88,81,72,30.27,30.24,30.22,10,8,3,10,6,16,0.78,7,,52
2012-9-15,69,66,64,64,62,59,88,87,78,30.23,30.18,30.11,10,7,2,9,4,,0.62,8,,100
2012-9-16,73,68,62,64,62,59,88,82,69,30.12,30.07,30.02,10,7,1,8,2,,0.01,6,,186
2012-9-17,73,68,62,63,61,57,94,82,65,30.01,29.93,29.87,10,6,1,9,2,,0.00,5,,339
2012-9-18,69,60,51,61,47,43,88,59,40,30.14,30.07,29.93,10,10,3,18,10,23,0.00,2,,19
2012-9-19,78,63,48,50,46,43,82,55,36,30.16,30.09,30.03,10,10,8,18,7,24,0.00,0,,167
2012-9-20,82,71,60,61,53,46,68,54,42,30.07,30.03,29.98,10,10,10,17,9,23,0.00,0,,202
2012-9-21,84,73,62,61,57,48,77,58,42,30.02,29.96,29.91,10,10,10,21,8,24,0.00,1,Thunderstorm,233
2012-9-22,82,68,53,55,46,37,77,48,28,30.22,30.12,30.01,10,10,10,15,6,17,0.00,0,,33
2012-9-23,73,63,53,48,41,34,72,48,36,30.33,30.24,30.19,10,10,8,10,6,,0.01,1,Thunderstorm,79
2012-9-24,78,68,57,59,50,43,64,56,46,30.21,30.09,29.97,10,10,10,20,8,26,0.00,0,,144
2012-9-25,89,79,69,63,58,52,73,53,33,29.99,29.94,29.88,10,10,10,22,15,33,0.00,0,,187
2012-9-26,78,72,66,66,62,57,88,69,53,30.11,30.02,29.93,10,10,8,16,11,23,0.01,3,,162
2012-9-27,78,71,64,63,61,57,88,73,54,30.18,30.13,30.09,10,10,10,12,4,,0.00,5,,57
2012-9-28,80,71,62,64,62,57,88,76,54,30.15,30.10,30.05,10,8,2,13,3,,0.00,3,,26
2012-9-29,71,68,64,63,61,57,88,79,68,30.10,30.05,30.00,10,9,6,8,4,,0.00,5,,67
2012-9-30,69,63,57,57,53,50,82,67,49,30.01,29.94,29.88,10,10,9,9,4,,0.00,0,,27